createdAt,value
2019-04-07T00:02:09.232Z,98729.38
2019-04-07T00:07:15.098Z,98726.50
2019-04-07T00:12:20.352Z,98725.81
2019-04-07T00:17:26.151Z,98721.19
2019-04-07T00:22:31.474Z,98718.27
2019-04-07T00:27:36.896Z,98724.23
2019-04-07T00:32:42.785Z,98722.21
2019-04-07T00:37:48.306Z,98724.69
2019-04-07T00:42:53.553Z,98714.77
2019-04-07T00:47:59.366Z,98710.33
2019-04-07T00:53:05.445Z,98698.48
2019-04-07T00:58:11.550Z,98708.23
2019-04-07T01:03:18.263Z,98711.52
2019-04-07T01:08:23.792Z,98711.58
2019-04-07T01:13:29.705Z,98705.56
2019-04-07T01:18:35.618Z,98700.70
2019-04-07T01:23:41.489Z,98704.94
2019-04-07T01:28:47.113Z,98702.14
2019-04-07T01:33:53.132Z,98697.99
2019-04-07T01:38:58.754Z,98698.41
2019-04-07T01:44:10.185Z,98691.22
2019-04-07T01:49:22.254Z,98684.11
2019-04-07T01:54:38.423Z,98687.23
2019-04-07T01:59:52.100Z,98676.04
2019-04-07T02:05:05.551Z,98673.94
2019-04-07T02:10:19.647Z,98676.91
2019-04-07T02:15:31.864Z,98677.97
2019-04-07T02:20:49.902Z,98674.58
2019-04-07T02:26:03.585Z,98688.94
2019-04-07T02:31:19.289Z,98694.43
2019-04-07T02:36:32.213Z,98695.13
2019-04-07T02:41:46.687Z,98685.34
2019-04-07T02:46:58.821Z,98689.18
2019-04-07T02:52:12.559Z,98688.19
2019-04-07T02:57:24.757Z,98684.81
2019-04-07T03:02:37.677Z,98682.30
2019-04-07T03:07:50.355Z,98681.14
2019-04-07T03:13:04.980Z,98674.50
2019-04-07T03:18:20.174Z,98676.56
2019-04-07T03:23:35.019Z,98674.63
2019-04-07T03:28:50.244Z,98682.30
2019-04-07T03:34:06.190Z,98679.18
2019-04-07T03:39:20.663Z,98680.70
2019-04-07T03:44:33.095Z,98687.86
2019-04-07T03:49:46.222Z,98688.28
2019-04-07T03:55:01.221Z,98697.48
2019-04-07T04:00:21.934Z,98698.36
2019-04-07T04:05:46.109Z,98704.23
2019-04-07T04:11:00.485Z,98705.45
2019-04-07T04:16:10.584Z,98708.30
2019-04-07T04:21:16.414Z,98719.90
2019-04-07T04:26:21.818Z,98717.49
2019-04-07T04:31:27.392Z,98717.59
2019-04-07T04:36:33.495Z,98721.91
2019-04-07T04:41:38.846Z,98722.61
2019-04-07T04:46:44.125Z,98725.41
2019-04-07T04:51:50.124Z,98720.09
2019-04-07T04:56:55.533Z,98724.49
2019-04-07T05:02:01.136Z,98724.39
2019-04-07T05:07:06.615Z,98732.23
2019-04-07T05:12:11.875Z,98734.38
2019-04-07T05:17:17.373Z,98733.88
2019-04-07T05:22:23.426Z,98738.42
2019-04-07T05:27:29.339Z,98744.66
2019-04-07T05:32:34.543Z,98747.93
2019-04-07T05:37:40.569Z,98744.63
2019-04-07T05:42:46.528Z,98750.82
2019-04-07T05:47:53.344Z,98750.89
2019-04-07T05:52:58.800Z,98749.07
2019-04-07T05:58:07.019Z,98751.73
2019-04-07T06:03:11.234Z,98752.54
2019-04-07T06:08:24.650Z,98755.06
2019-04-07T06:13:23.743Z,98759.96
2019-04-07T06:18:32.637Z,98760.13
2019-04-07T06:23:36.417Z,98769.89
2019-04-07T06:28:41.993Z,98781.65
2019-04-07T06:33:47.213Z,98777.30
2019-04-07T06:38:53.682Z,98770.78
2019-04-07T06:44:09.872Z,98779.73
2019-04-07T06:49:15.072Z,98776.63
2019-04-07T06:54:29.820Z,98790.67
2019-04-07T06:59:47.141Z,98788.27
2019-04-07T07:04:59.355Z,98787.13
2019-04-07T07:10:28.714Z,98791.02
2019-04-07T07:15:50.075Z,98797.41
2019-04-07T07:21:03.738Z,98799.41
2019-04-07T07:26:09.828Z,98799.41
2019-04-07T07:31:16.653Z,98800.37
2019-04-07T07:36:23.987Z,98798.34
2019-04-07T07:41:29.427Z,98804.63
2019-04-07T07:46:34.790Z,98811.39
2019-04-07T07:51:45.121Z,98807.05
2019-04-07T07:56:50.488Z,98806.74
2019-04-07T08:01:55.567Z,98805.27
2019-04-07T08:07:02.567Z,98797.84
2019-04-07T08:12:08.367Z,98809.82
2019-04-07T08:17:15.958Z,98812.24
2019-04-07T08:22:29.950Z,98812.80
2019-04-07T08:27:31.052Z,98815.70
2019-04-07T08:32:37.670Z,98799.30
2019-04-07T08:37:45.792Z,98795.53
2019-04-07T08:42:50.224Z,98799.01
2019-04-07T08:47:56.290Z,98797.78
2019-04-07T08:53:10.495Z,98810.39
2019-04-07T08:58:24.887Z,98812.66
2019-04-07T09:03:21.973Z,98804.91
2019-04-07T09:08:27.429Z,98802.36
2019-04-07T09:13:34.178Z,98799.23
2019-04-07T09:18:55.142Z,98800.03
2019-04-07T09:24:13.805Z,98800.20
2019-04-07T09:29:29.237Z,98801.12
2019-04-07T09:34:42.964Z,98812.67
2019-04-07T09:40:02.212Z,98807.17
2019-04-07T09:45:15.984Z,98798.95
2019-04-07T09:50:36.415Z,98804.97
2019-04-07T09:55:50.535Z,98810.75
2019-04-07T10:01:07.970Z,98809.33
2019-04-07T10:06:21.984Z,98810.36
2019-04-07T10:11:36.217Z,98827.87
2019-04-07T10:16:50.706Z,98829.44
2019-04-07T10:22:14.989Z,98830.82
2019-04-07T10:27:39.698Z,98834.40
2019-04-07T10:32:57.439Z,98841.41
2019-04-07T10:38:15.362Z,98840.86
2019-04-07T10:43:31.350Z,98844.55
2019-04-07T10:48:51.089Z,98834.23
2019-04-07T10:54:05.769Z,98842.89
2019-04-07T10:59:30.880Z,98856.92
2019-04-07T11:04:49.590Z,98865.22
2019-04-07T11:10:06.666Z,98872.21
2019-04-07T11:15:20.942Z,98869.07
2019-04-07T11:20:35.202Z,98872.27
2019-04-07T11:25:47.870Z,98865.65
2019-04-07T11:31:12.262Z,98861.42
2019-04-07T11:36:26.089Z,98864.97
2019-04-07T11:41:40.274Z,98866.11
2019-04-07T11:46:58.122Z,98872.49
2019-04-07T11:52:09.286Z,98870.45
2019-04-07T11:57:21.583Z,98889.53
2019-04-07T12:02:36.376Z,98887.19
2019-04-07T12:07:53.918Z,98900.09
2019-04-07T12:13:04.802Z,98894.45
2019-04-07T12:18:20.232Z,98895.84
2019-04-07T12:23:34.033Z,98895.12
2019-04-07T12:28:51.443Z,98898.16
2019-04-07T12:34:12.021Z,98895.72
2019-04-07T12:39:23.110Z,98902.64
2019-04-07T12:44:37.393Z,98899.48
2019-04-07T12:49:56.159Z,98896.94
2019-04-07T12:55:15.389Z,98893.20
2019-04-07T13:00:27.629Z,98894.03
2019-04-07T13:05:41.186Z,98902.86
2019-04-07T13:11:09.495Z,98906.84
2019-04-07T13:16:25.082Z,98909.67
2019-04-07T13:21:34.046Z,98902.09
2019-04-07T13:26:48.789Z,98910.09
2019-04-07T13:32:03.362Z,98911.43
2019-04-07T13:37:17.303Z,98902.05
2019-04-07T13:42:37.892Z,98894.66
2019-04-07T13:47:52.460Z,98899.99
2019-04-07T13:53:06.713Z,98906.00
2019-04-07T13:58:20.850Z,98913.92
2019-04-07T14:03:44.884Z,98925.67
2019-04-07T14:09:01.410Z,98925.92
2019-04-07T14:14:15.740Z,98919.80
2019-04-07T14:19:35.355Z,98921.30
2019-04-07T14:24:47.146Z,98919.23
2019-04-07T14:30:00.406Z,98913.38
2019-04-07T14:35:22.619Z,98920.02
2019-04-07T14:40:36.664Z,98929.66
2019-04-07T14:45:54.077Z,98930.93
2019-04-07T14:51:18.223Z,98935.84
2019-04-07T14:56:35.694Z,98934.82
2019-04-07T15:01:51.320Z,98921.57
2019-04-07T15:07:12.284Z,98937.87
2019-04-07T15:12:25.051Z,98939.83
2019-04-07T15:17:29.943Z,98949.58
2019-04-07T15:22:35.734Z,98938.75
2019-04-07T15:27:40.991Z,98939.09
2019-04-07T15:32:46.387Z,98950.77
2019-04-07T15:37:52.464Z,98951.66
2019-04-07T15:43:01.486Z,98952.00
2019-04-07T15:48:05.125Z,98920.03
2019-04-07T15:53:13.519Z,98956.49
2019-04-07T15:58:17.458Z,98964.91
2019-04-07T16:03:22.923Z,98963.81
2019-04-07T16:08:30.560Z,98975.14
2019-04-07T16:13:35.881Z,98978.93
2019-04-07T16:18:43.415Z,98979.98
2019-04-07T16:23:51.886Z,98976.82
2019-04-07T16:28:56.245Z,98974.16
2019-04-07T16:34:05.730Z,98991.77
2019-04-07T16:39:09.846Z,98985.00
2019-04-07T16:44:15.905Z,98990.18
2019-04-07T16:49:21.660Z,98989.30
2019-04-07T16:54:27.218Z,98978.98
2019-04-07T16:59:32.798Z,98988.42
2019-04-07T17:04:38.513Z,98993.61
2019-04-07T17:09:44.681Z,99001.30
2019-04-07T17:14:52.132Z,99010.05
2019-04-07T17:19:59.488Z,99007.20
2019-04-07T17:25:08.647Z,99016.11
2019-04-07T17:30:14.923Z,99015.16
2019-04-07T17:35:24.465Z,99025.53
2019-04-07T17:40:33.198Z,99020.27
2019-04-07T17:45:47.908Z,99019.97
2019-04-07T17:51:12.102Z,99022.19
2019-04-07T17:56:29.908Z,99036.77
2019-04-07T18:01:44.327Z,99041.17
2019-04-07T18:07:01.946Z,99040.39
2019-04-07T18:12:14.556Z,99050.92
2019-04-07T18:17:28.017Z,99048.24
2019-04-07T18:22:46.024Z,99043.45
2019-04-07T18:28:07.024Z,99042.94
2019-04-07T18:33:22.884Z,99044.79
2019-04-07T18:38:48.417Z,99044.91
2019-04-07T18:44:05.624Z,99057.99
2019-04-07T18:49:17.021Z,99048.63
2019-04-07T18:54:32.370Z,99063.31
2019-04-07T18:59:47.407Z,99066.73
2019-04-07T19:05:01.702Z,99069.08
2019-04-07T19:10:21.361Z,99064.48
2019-04-07T19:15:30.678Z,99065.13
2019-04-07T19:20:44.023Z,99067.66
2019-04-07T19:32:25.906Z,99066.90
2019-04-07T19:37:40.683Z,99070.38
2019-04-07T19:42:52.431Z,99067.19
2019-04-07T19:48:10.084Z,99079.78
2019-04-07T19:53:27.400Z,99081.28
2019-04-07T19:58:41.039Z,99081.93
2019-04-07T20:03:56.663Z,99065.98
2019-04-07T20:09:12.258Z,99079.27
2019-04-07T20:14:31.462Z,99083.00
2019-04-07T20:19:45.014Z,99076.09
2019-04-07T20:25:13.251Z,99074.59
2019-04-07T20:30:23.329Z,99071.90
2019-04-07T20:35:37.221Z,99077.23
2019-04-07T20:40:56.060Z,99077.61
2019-04-07T20:46:13.283Z,99070.95
2019-04-07T20:51:26.462Z,99075.08
2019-04-07T20:56:43.675Z,99084.79
2019-04-07T21:02:03.145Z,99086.13
2019-04-07T21:07:11.932Z,99081.05
2019-04-07T21:12:23.505Z,99086.19
2019-04-07T21:17:37.585Z,99092.48
2019-04-07T21:22:49.739Z,99092.78
2019-04-07T21:28:06.090Z,99092.52
2019-04-07T21:33:23.771Z,99093.45
2019-04-07T21:38:34.974Z,99091.25
2019-04-07T21:43:48.857Z,99096.94
2019-04-07T21:49:05.838Z,99094.18
2019-04-07T21:54:20.058Z,99091.78
2019-04-07T21:59:33.957Z,99087.03
2019-04-07T22:04:50.638Z,99082.65
2019-04-07T22:09:58.917Z,99081.19
2019-04-07T22:15:06.522Z,99079.86
2019-04-07T22:20:17.740Z,99081.80
2019-04-07T22:25:29.131Z,99083.03
2019-04-07T22:30:39.253Z,99085.31
2019-04-07T22:35:43.977Z,99080.80
2019-04-07T22:40:48.697Z,99081.44
2019-04-07T22:46:04.205Z,99088.72
2019-04-07T22:51:02.869Z,99084.30
2019-04-07T22:56:09.063Z,99080.66
2019-04-07T23:01:14.839Z,99088.66
2019-04-07T23:06:21.028Z,99085.54
2019-04-07T23:11:26.369Z,99084.02
2019-04-07T23:16:31.710Z,99089.59
2019-04-07T23:21:37.476Z,99084.20
2019-04-07T23:26:42.763Z,99081.73
2019-04-07T23:31:48.018Z,99084.27
2019-04-07T23:36:54.069Z,99083.51
2019-04-07T23:41:59.419Z,99081.92
2019-04-07T23:47:04.817Z,99079.81
2019-04-07T23:52:11.048Z,99083.68
2019-04-07T23:57:16.502Z,99085.70
